sensor_id;sensor_type;location;lat;lon;timestamp;P1;durP1;ratioP1;P2;durP2;ratioP2
10643;SDS011;5370;50.132;8.626;2022-08-25T00:00:36;4.88;;;2.53;;
10643;SDS011;5370;50.132;8.626;2022-08-25T00:03:05;8.23;;;2.33;;
10643;SDS011;5370;50.132;8.626;2022-08-25T00:05:32;12.32;;;2.90;;
10643;SDS011;5370;50.132;8.626;2022-08-25T00:07:57;10.77;;;2.50;;
10643;SDS011;5370;50.132;8.626;2022-08-25T00:10:23;20.13;;;3.50;;
10643;SDS011;5370;50.132;8.626;2022-08-25T00:12:50;11.07;;;3.53;;
10643;SDS011;5370;50.132;8.626;2022-08-25T00:15:16;15.82;;;3.22;;
10643;SDS011;5370;50.132;8.626;2022-08-25T00:17:41;24.05;;;3.35;;
10643;SDS011;5370;50.132;8.626;2022-08-25T00:20:07;8.55;;;2.90;;
10643;SDS011;5370;50.132;8.626;2022-08-25T00:22:34;8.13;;;2.22;;
10643;SDS011;5370;50.132;8.626;2022-08-25T00:24:59;14.07;;;3.20;;
10643;SDS011;5370;50.132;8.626;2022-08-25T00:27:25;16.48;;;3.20;;
10643;SDS011;5370;50.132;8.626;2022-08-25T00:29:51;9.88;;;3.10;;
10643;SDS011;5370;50.132;8.626;2022-08-25T00:32:17;13.63;;;3.45;;
10643;SDS011;5370;50.132;8.626;2022-08-25T00:34:44;10.65;;;2.75;;
10643;SDS011;5370;50.132;8.626;2022-08-25T00:37:09;12.88;;;3.63;;
10643;SDS011;5370;50.132;8.626;2022-08-25T00:39:35;8.68;;;2.88;;
10643;SDS011;5370;50.132;8.626;2022-08-25T00:42:02;8.75;;;3.45;;
10643;SDS011;5370;50.132;8.626;2022-08-25T00:44:30;8.77;;;3.42;;
10643;SDS011;5370;50.132;8.626;2022-08-25T00:46:58;7.93;;;2.55;;
10643;SDS011;5370;50.132;8.626;2022-08-25T00:52:05;6.72;;;2.95;;
10643;SDS011;5370;50.132;8.626;2022-08-25T00:55:17;8.95;;;3.20;;
10643;SDS011;5370;50.132;8.626;2022-08-25T00:57:27;4.55;;;3.08;;
10643;SDS011;5370;50.132;8.626;2022-08-25T00:59:57;5.45;;;2.45;;
10643;SDS011;5370;50.132;8.626;2022-08-25T01:02:23;4.60;;;2.13;;
10643;SDS011;5370;50.132;8.626;2022-08-25T01:04:48;6.00;;;3.10;;
10643;SDS011;5370;50.132;8.626;2022-08-25T01:07:14;8.45;;;2.58;;
10643;SDS011;5370;50.132;8.626;2022-08-25T01:09:42;4.95;;;2.63;;
10643;SDS011;5370;50.132;8.626;2022-08-25T01:12:08;3.13;;;2.72;;
10643;SDS011;5370;50.132;8.626;2022-08-25T01:14:34;4.97;;;2.47;;
10643;SDS011;5370;50.132;8.626;2022-08-25T01:17:01;5.40;;;2.35;;
10643;SDS011;5370;50.132;8.626;2022-08-25T01:19:28;5.60;;;2.70;;
10643;SDS011;5370;50.132;8.626;2022-08-25T01:21:57;6.35;;;2.78;;
10643;SDS011;5370;50.132;8.626;2022-08-25T01:26:49;8.30;;;2.70;;
10643;SDS011;5370;50.132;8.626;2022-08-25T01:29:15;3.65;;;2.55;;
10643;SDS011;5370;50.132;8.626;2022-08-25T01:31:50;6.93;;;2.70;;
10643;SDS011;5370;50.132;8.626;2022-08-25T01:34:38;4.63;;;2.60;;
10643;SDS011;5370;50.132;8.626;2022-08-25T01:37:06;4.30;;;2.38;;
10643;SDS011;5370;50.132;8.626;2022-08-25T01:39:32;9.15;;;2.70;;
10643;SDS011;5370;50.132;8.626;2022-08-25T01:44:23;4.18;;;3.38;;
10643;SDS011;5370;50.132;8.626;2022-08-25T01:46:50;4.65;;;2.55;;
10643;SDS011;5370;50.132;8.626;2022-08-25T01:49:16;6.07;;;3.35;;
10643;SDS011;5370;50.132;8.626;2022-08-25T01:51:45;5.63;;;3.03;;
10643;SDS011;5370;50.132;8.626;2022-08-25T01:54:15;7.05;;;3.08;;
10643;SDS011;5370;50.132;8.626;2022-08-25T01:56:41;2.95;;;2.28;;
10643;SDS011;5370;50.132;8.626;2022-08-25T01:59:06;3.42;;;2.70;;
10643;SDS011;5370;50.132;8.626;2022-08-25T02:01:33;5.22;;;2.50;;
10643;SDS011;5370;50.132;8.626;2022-08-25T02:03:59;6.35;;;2.63;;
10643;SDS011;5370;50.132;8.626;2022-08-25T02:06:26;8.95;;;2.65;;
10643;SDS011;5370;50.132;8.626;2022-08-25T02:08:57;5.93;;;2.92;;
10643;SDS011;5370;50.132;8.626;2022-08-25T02:11:26;4.72;;;2.78;;
10643;SDS011;5370;50.132;8.626;2022-08-25T02:13:52;5.20;;;2.90;;
10643;SDS011;5370;50.132;8.626;2022-08-25T02:16:19;5.45;;;2.83;;
10643;SDS011;5370;50.132;8.626;2022-08-25T02:18:49;5.75;;;2.90;;
10643;SDS011;5370;50.132;8.626;2022-08-25T02:21:15;5.28;;;2.80;;
10643;SDS011;5370;50.132;8.626;2022-08-25T02:23:41;5.07;;;2.63;;
10643;SDS011;5370;50.132;8.626;2022-08-25T02:26:07;9.75;;;2.75;;
10643;SDS011;5370;50.132;8.626;2022-08-25T02:28:33;4.05;;;3.13;;
10643;SDS011;5370;50.132;8.626;2022-08-25T02:30:59;4.82;;;3.08;;
10643;SDS011;5370;50.132;8.626;2022-08-25T02:33:25;5.47;;;3.33;;
10643;SDS011;5370;50.132;8.626;2022-08-25T02:35:51;9.23;;;3.20;;
10643;SDS011;5370;50.132;8.626;2022-08-25T02:38:16;5.07;;;2.95;;
10643;SDS011;5370;50.132;8.626;2022-08-25T02:40:42;5.05;;;3.00;;
10643;SDS011;5370;50.132;8.626;2022-08-25T02:43:08;4.38;;;3.28;;
10643;SDS011;5370;50.132;8.626;2022-08-25T02:45:33;4.00;;;3.17;;
10643;SDS011;5370;50.132;8.626;2022-08-25T02:47:59;6.55;;;3.33;;
10643;SDS011;5370;50.132;8.626;2022-08-25T02:50:24;3.75;;;3.45;;
10643;SDS011;5370;50.132;8.626;2022-08-25T02:52:50;3.55;;;3.20;;
10643;SDS011;5370;50.132;8.626;2022-08-25T02:55:16;4.80;;;3.40;;
10643;SDS011;5370;50.132;8.626;2022-08-25T02:57:42;9.77;;;3.30;;
10643;SDS011;5370;50.132;8.626;2022-08-25T03:00:09;4.03;;;3.10;;
10643;SDS011;5370;50.132;8.626;2022-08-25T03:02:37;8.25;;;3.55;;
10643;SDS011;5370;50.132;8.626;2022-08-25T03:05:02;4.85;;;3.15;;
10643;SDS011;5370;50.132;8.626;2022-08-25T03:07:29;9.82;;;3.30;;
10643;SDS011;5370;50.132;8.626;2022-08-25T03:09:54;5.40;;;3.83;;
10643;SDS011;5370;50.132;8.626;2022-08-25T03:12:20;4.35;;;3.13;;
10643;SDS011;5370;50.132;8.626;2022-08-25T03:14:46;4.53;;;3.65;;
10643;SDS011;5370;50.132;8.626;2022-08-25T03:17:12;5.97;;;3.95;;
10643;SDS011;5370;50.132;8.626;2022-08-25T03:19:38;4.72;;;3.08;;
10643;SDS011;5370;50.132;8.626;2022-08-25T03:22:04;5.78;;;3.80;;
10643;SDS011;5370;50.132;8.626;2022-08-25T03:24:31;4.68;;;3.70;;
10643;SDS011;5370;50.132;8.626;2022-08-25T03:26:56;3.45;;;3.15;;
10643;SDS011;5370;50.132;8.626;2022-08-25T03:29:23;5.75;;;3.55;;
10643;SDS011;5370;50.132;8.626;2022-08-25T03:31:51;4.47;;;3.75;;
10643;SDS011;5370;50.132;8.626;2022-08-25T03:34:19;8.93;;;3.55;;
10643;SDS011;5370;50.132;8.626;2022-08-25T03:36:47;6.38;;;3.83;;
10643;SDS011;5370;50.132;8.626;2022-08-25T03:39:15;4.72;;;3.70;;
10643;SDS011;5370;50.132;8.626;2022-08-25T03:41:45;9.75;;;3.78;;
10643;SDS011;5370;50.132;8.626;2022-08-25T03:44:12;5.22;;;3.78;;
10643;SDS011;5370;50.132;8.626;2022-08-25T03:46:39;6.38;;;3.65;;
10643;SDS011;5370;50.132;8.626;2022-08-25T03:49:08;7.70;;;4.50;;
10643;SDS011;5370;50.132;8.626;2022-08-25T03:51:43;6.18;;;3.65;;
10643;SDS011;5370;50.132;8.626;2022-08-25T03:54:12;4.85;;;3.42;;
10643;SDS011;5370;50.132;8.626;2022-08-25T03:56:44;5.03;;;3.88;;
10643;SDS011;5370;50.132;8.626;2022-08-25T03:59:09;7.80;;;4.13;;
10643;SDS011;5370;50.132;8.626;2022-08-25T04:01:36;5.90;;;3.53;;
10643;SDS011;5370;50.132;8.626;2022-08-25T04:04:03;4.60;;;4.07;;
10643;SDS011;5370;50.132;8.626;2022-08-25T04:06:30;6.03;;;3.58;;
10643;SDS011;5370;50.132;8.626;2022-08-25T04:08:56;3.97;;;3.20;;
10643;SDS011;5370;50.132;8.626;2022-08-25T04:11:23;4.60;;;4.13;;
10643;SDS011;5370;50.132;8.626;2022-08-25T04:13:50;6.15;;;3.95;;
10643;SDS011;5370;50.132;8.626;2022-08-25T04:16:18;10.57;;;4.43;;
10643;SDS011;5370;50.132;8.626;2022-08-25T04:18:46;5.18;;;3.45;;
10643;SDS011;5370;50.132;8.626;2022-08-25T04:21:13;4.45;;;3.63;;
10643;SDS011;5370;50.132;8.626;2022-08-25T04:23:40;4.93;;;3.92;;
10643;SDS011;5370;50.132;8.626;2022-08-25T04:26:12;7.57;;;3.70;;
10643;SDS011;5370;50.132;8.626;2022-08-25T04:28:43;4.53;;;4.13;;
10643;SDS011;5370;50.132;8.626;2022-08-25T04:31:10;6.47;;;4.20;;
10643;SDS011;5370;50.132;8.626;2022-08-25T04:33:38;3.90;;;3.50;;
10643;SDS011;5370;50.132;8.626;2022-08-25T04:36:06;4.60;;;3.85;;
10643;SDS011;5370;50.132;8.626;2022-08-25T04:38:35;5.22;;;4.18;;
10643;SDS011;5370;50.132;8.626;2022-08-25T04:41:02;5.72;;;3.97;;
10643;SDS011;5370;50.132;8.626;2022-08-25T04:43:30;5.35;;;4.38;;
10643;SDS011;5370;50.132;8.626;2022-08-25T04:45:56;8.05;;;4.47;;
10643;SDS011;5370;50.132;8.626;2022-08-25T04:48:22;8.23;;;4.00;;
10643;SDS011;5370;50.132;8.626;2022-08-25T04:50:48;7.97;;;4.25;;
10643;SDS011;5370;50.132;8.626;2022-08-25T04:53:14;6.65;;;3.90;;
10643;SDS011;5370;50.132;8.626;2022-08-25T04:55:41;5.13;;;3.97;;
10643;SDS011;5370;50.132;8.626;2022-08-25T04:58:09;4.78;;;4.20;;
10643;SDS011;5370;50.132;8.626;2022-08-25T05:00:35;6.55;;;4.28;;
10643;SDS011;5370;50.132;8.626;2022-08-25T05:03:02;3.70;;;3.40;;
10643;SDS011;5370;50.132;8.626;2022-08-25T05:05:28;8.23;;;4.32;;
10643;SDS011;5370;50.132;8.626;2022-08-25T05:07:55;9.75;;;4.32;;
10643;SDS011;5370;50.132;8.626;2022-08-25T05:10:21;8.27;;;4.22;;
10643;SDS011;5370;50.132;8.626;2022-08-25T05:12:46;5.80;;;4.18;;
10643;SDS011;5370;50.132;8.626;2022-08-25T05:15:12;10.43;;;4.13;;
10643;SDS011;5370;50.132;8.626;2022-08-25T05:17:56;5.93;;;4.25;;
10643;SDS011;5370;50.132;8.626;2022-08-25T05:20:22;5.88;;;4.22;;
10643;SDS011;5370;50.132;8.626;2022-08-25T05:22:48;4.72;;;4.30;;
10643;SDS011;5370;50.132;8.626;2022-08-25T05:25:14;6.57;;;4.35;;
10643;SDS011;5370;50.132;8.626;2022-08-25T05:27:40;6.13;;;3.92;;
10643;SDS011;5370;50.132;8.626;2022-08-25T05:30:07;9.48;;;4.32;;
10643;SDS011;5370;50.132;8.626;2022-08-25T05:32:34;12.63;;;4.45;;
10643;SDS011;5370;50.132;8.626;2022-08-25T05:34:59;7.93;;;4.80;;
10643;SDS011;5370;50.132;8.626;2022-08-25T05:37:25;6.93;;;4.10;;
10643;SDS011;5370;50.132;8.626;2022-08-25T05:39:50;6.70;;;4.05;;
10643;SDS011;5370;50.132;8.626;2022-08-25T05:42:16;9.18;;;4.55;;
10643;SDS011;5370;50.132;8.626;2022-08-25T05:44:41;6.18;;;4.07;;
10643;SDS011;5370;50.132;8.626;2022-08-25T05:47:07;7.32;;;4.38;;
10643;SDS011;5370;50.132;8.626;2022-08-25T05:49:33;6.35;;;4.15;;
10643;SDS011;5370;50.132;8.626;2022-08-25T05:51:58;9.30;;;4.75;;
10643;SDS011;5370;50.132;8.626;2022-08-25T05:54:24;11.13;;;4.70;;
10643;SDS011;5370;50.132;8.626;2022-08-25T05:56:49;6.65;;;4.85;;
10643;SDS011;5370;50.132;8.626;2022-08-25T05:59:15;6.03;;;4.53;;
10643;SDS011;5370;50.132;8.626;2022-08-25T06:01:41;7.40;;;4.88;;
10643;SDS011;5370;50.132;8.626;2022-08-25T06:04:25;7.93;;;4.30;;
10643;SDS011;5370;50.132;8.626;2022-08-25T06:06:51;5.07;;;4.50;;
10643;SDS011;5370;50.132;8.626;2022-08-25T06:09:18;9.48;;;5.28;;
10643;SDS011;5370;50.132;8.626;2022-08-25T06:11:46;8.43;;;5.57;;
10643;SDS011;5370;50.132;8.626;2022-08-25T06:14:12;9.95;;;5.63;;
10643;SDS011;5370;50.132;8.626;2022-08-25T06:16:38;10.95;;;5.30;;
10643;SDS011;5370;50.132;8.626;2022-08-25T06:19:04;7.70;;;5.43;;
10643;SDS011;5370;50.132;8.626;2022-08-25T06:21:31;8.52;;;5.50;;
10643;SDS011;5370;50.132;8.626;2022-08-25T06:23:56;9.63;;;6.00;;
10643;SDS011;5370;50.132;8.626;2022-08-25T06:26:22;7.32;;;5.95;;
10643;SDS011;5370;50.132;8.626;2022-08-25T06:28:49;9.57;;;5.47;;
10643;SDS011;5370;50.132;8.626;2022-08-25T06:31:15;10.55;;;6.22;;
10643;SDS011;5370;50.132;8.626;2022-08-25T06:33:41;8.23;;;5.57;;
10643;SDS011;5370;50.132;8.626;2022-08-25T06:36:07;7.75;;;5.32;;
10643;SDS011;5370;50.132;8.626;2022-08-25T06:38:33;11.55;;;6.80;;
10643;SDS011;5370;50.132;8.626;2022-08-25T06:41:00;10.68;;;6.22;;
10643;SDS011;5370;50.132;8.626;2022-08-25T06:43:29;10.32;;;7.07;;
10643;SDS011;5370;50.132;8.626;2022-08-25T06:45:57;10.30;;;6.25;;
10643;SDS011;5370;50.132;8.626;2022-08-25T06:48:23;9.77;;;6.28;;
10643;SDS011;5370;50.132;8.626;2022-08-25T06:50:49;9.00;;;5.82;;
10643;SDS011;5370;50.132;8.626;2022-08-25T06:53:14;8.25;;;6.22;;
10643;SDS011;5370;50.132;8.626;2022-08-25T06:55:41;9.30;;;6.75;;
10643;SDS011;5370;50.132;8.626;2022-08-25T06:58:06;9.55;;;6.50;;
10643;SDS011;5370;50.132;8.626;2022-08-25T07:00:33;12.82;;;6.65;;
10643;SDS011;5370;50.132;8.626;2022-08-25T07:02:59;9.93;;;6.70;;
10643;SDS011;5370;50.132;8.626;2022-08-25T07:05:25;7.95;;;6.50;;
10643;SDS011;5370;50.132;8.626;2022-08-25T07:07:51;7.18;;;6.15;;
10643;SDS011;5370;50.132;8.626;2022-08-25T07:10:16;9.23;;;6.50;;
10643;SDS011;5370;50.132;8.626;2022-08-25T07:12:43;8.88;;;7.47;;
10643;SDS011;5370;50.132;8.626;2022-08-25T07:15:08;11.52;;;6.80;;
10643;SDS011;5370;50.132;8.626;2022-08-25T07:17:34;9.43;;;6.70;;
10643;SDS011;5370;50.132;8.626;2022-08-25T07:20:00;9.20;;;6.80;;
10643;SDS011;5370;50.132;8.626;2022-08-25T07:22:26;12.05;;;6.47;;
10643;SDS011;5370;50.132;8.626;2022-08-25T07:24:51;12.95;;;6.95;;
10643;SDS011;5370;50.132;8.626;2022-08-25T07:27:17;9.63;;;6.68;;
10643;SDS011;5370;50.132;8.626;2022-08-25T07:29:42;7.55;;;5.43;;
10643;SDS011;5370;50.132;8.626;2022-08-25T07:32:08;8.18;;;6.65;;
10643;SDS011;5370;50.132;8.626;2022-08-25T07:34:34;6.43;;;5.75;;
10643;SDS011;5370;50.132;8.626;2022-08-25T07:37:19;10.60;;;6.47;;
10643;SDS011;5370;50.132;8.626;2022-08-25T07:39:45;7.07;;;6.25;;
10643;SDS011;5370;50.132;8.626;2022-08-25T07:42:11;11.95;;;6.65;;
10643;SDS011;5370;50.132;8.626;2022-08-25T07:44:37;11.18;;;6.10;;
10643;SDS011;5370;50.132;8.626;2022-08-25T07:47:03;7.05;;;6.35;;
10643;SDS011;5370;50.132;8.626;2022-08-25T07:49:29;9.38;;;6.22;;
10643;SDS011;5370;50.132;8.626;2022-08-25T07:51:55;7.40;;;6.18;;
10643;SDS011;5370;50.132;8.626;2022-08-25T07:54:20;8.45;;;6.43;;
10643;SDS011;5370;50.132;8.626;2022-08-25T07:56:46;8.70;;;6.30;;
10643;SDS011;5370;50.132;8.626;2022-08-25T07:59:12;10.20;;;6.88;;
10643;SDS011;5370;50.132;8.626;2022-08-25T08:01:38;8.05;;;7.00;;
10643;SDS011;5370;50.132;8.626;2022-08-25T08:04:04;11.45;;;6.60;;
10643;SDS011;5370;50.132;8.626;2022-08-25T08:06:29;8.77;;;6.80;;
10643;SDS011;5370;50.132;8.626;2022-08-25T08:08:55;12.88;;;6.53;;
10643;SDS011;5370;50.132;8.626;2022-08-25T08:11:29;16.95;;;6.68;;
10643;SDS011;5370;50.132;8.626;2022-08-25T08:13:58;10.93;;;6.05;;
10643;SDS011;5370;50.132;8.626;2022-08-25T08:16:26;14.60;;;7.00;;
10643;SDS011;5370;50.132;8.626;2022-08-25T08:18:54;8.45;;;6.88;;
10643;SDS011;5370;50.132;8.626;2022-08-25T08:21:22;7.78;;;6.18;;
10643;SDS011;5370;50.132;8.626;2022-08-25T08:23:50;6.18;;;5.40;;
10643;SDS011;5370;50.132;8.626;2022-08-25T08:26:17;10.70;;;5.93;;
10643;SDS011;5370;50.132;8.626;2022-08-25T08:28:43;6.63;;;5.93;;
10643;SDS011;5370;50.132;8.626;2022-08-25T08:31:09;8.32;;;5.70;;
10643;SDS011;5370;50.132;8.626;2022-08-25T08:33:35;9.20;;;6.30;;
10643;SDS011;5370;50.132;8.626;2022-08-25T08:36:02;8.30;;;6.28;;
10643;SDS011;5370;50.132;8.626;2022-08-25T08:38:30;12.70;;;6.47;;
10643;SDS011;5370;50.132;8.626;2022-08-25T08:41:41;9.25;;;6.65;;
10643;SDS011;5370;50.132;8.626;2022-08-25T08:46:48;7.72;;;5.93;;
10643;SDS011;5370;50.132;8.626;2022-08-25T08:49:34;10.05;;;6.15;;
10643;SDS011;5370;50.132;8.626;2022-08-25T08:52:09;6.60;;;5.60;;
10643;SDS011;5370;50.132;8.626;2022-08-25T08:54:38;7.70;;;6.90;;
10643;SDS011;5370;50.132;8.626;2022-08-25T08:57:16;10.65;;;6.70;;
10643;SDS011;5370;50.132;8.626;2022-08-25T08:59:58;9.20;;;6.63;;
10643;SDS011;5370;50.132;8.626;2022-08-25T09:02:27;7.85;;;6.50;;
10643;SDS011;5370;50.132;8.626;2022-08-25T09:05:11;7.35;;;6.63;;
10643;SDS011;5370;50.132;8.626;2022-08-25T09:07:42;9.35;;;6.93;;
10643;SDS011;5370;50.132;8.626;2022-08-25T09:10:12;7.78;;;6.18;;
10643;SDS011;5370;50.132;8.626;2022-08-25T09:15:15;7.30;;;6.60;;
10643;SDS011;5370;50.132;8.626;2022-08-25T09:23:03;9.27;;;6.43;;
10643;SDS011;5370;50.132;8.626;2022-08-25T09:28:29;7.47;;;6.22;;
10643;SDS011;5370;50.132;8.626;2022-08-25T09:30:59;8.65;;;6.63;;
10643;SDS011;5370;50.132;8.626;2022-08-25T09:33:28;6.45;;;5.85;;
10643;SDS011;5370;50.132;8.626;2022-08-25T09:35:56;9.77;;;6.68;;
10643;SDS011;5370;50.132;8.626;2022-08-25T09:38:23;6.68;;;5.93;;
10643;SDS011;5370;50.132;8.626;2022-08-25T09:40:52;6.90;;;6.28;;
10643;SDS011;5370;50.132;8.626;2022-08-25T09:43:28;8.25;;;6.88;;
10643;SDS011;5370;50.132;8.626;2022-08-25T09:48:32;7.60;;;5.90;;
10643;SDS011;5370;50.132;8.626;2022-08-25T09:56:31;8.40;;;6.68;;
10643;SDS011;5370;50.132;8.626;2022-08-25T09:59:18;6.82;;;6.13;;
10643;SDS011;5370;50.132;8.626;2022-08-25T10:01:59;8.85;;;6.20;;
10643;SDS011;5370;50.132;8.626;2022-08-25T10:04:45;7.50;;;6.07;;
10643;SDS011;5370;50.132;8.626;2022-08-25T10:07:20;8.63;;;7.18;;
10643;SDS011;5370;50.132;8.626;2022-08-25T10:09:55;7.55;;;5.75;;
10643;SDS011;5370;50.132;8.626;2022-08-25T10:12:29;9.23;;;6.75;;
10643;SDS011;5370;50.132;8.626;2022-08-25T10:15:15;7.03;;;6.10;;
10643;SDS011;5370;50.132;8.626;2022-08-25T10:17:43;6.38;;;5.60;;
10643;SDS011;5370;50.132;8.626;2022-08-25T10:22:34;9.93;;;5.60;;
10643;SDS011;5370;50.132;8.626;2022-08-25T10:25:06;8.43;;;6.28;;
10643;SDS011;5370;50.132;8.626;2022-08-25T10:30:06;7.78;;;6.35;;
10643;SDS011;5370;50.132;8.626;2022-08-25T10:35:47;6.25;;;5.40;;
10643;SDS011;5370;50.132;8.626;2022-08-25T10:48:51;8.38;;;6.05;;
10643;SDS011;5370;50.132;8.626;2022-08-25T10:52:06;7.63;;;5.97;;
10643;SDS011;5370;50.132;8.626;2022-08-25T10:57:21;6.50;;;5.90;;
10643;SDS011;5370;50.132;8.626;2022-08-25T11:02:31;7.22;;;6.53;;
10643;SDS011;5370;50.132;8.626;2022-08-25T11:05:11;10.63;;;6.65;;
10643;SDS011;5370;50.132;8.626;2022-08-25T11:08:43;8.07;;;6.68;;
10643;SDS011;5370;50.132;8.626;2022-08-25T11:11:10;6.25;;;5.75;;
10643;SDS011;5370;50.132;8.626;2022-08-25T11:13:46;6.20;;;5.30;;
10643;SDS011;5370;50.132;8.626;2022-08-25T11:16:18;5.55;;;5.05;;
10643;SDS011;5370;50.132;8.626;2022-08-25T11:19:08;6.88;;;5.03;;
10643;SDS011;5370;50.132;8.626;2022-08-25T11:24:34;5.30;;;4.80;;
10643;SDS011;5370;50.132;8.626;2022-08-25T11:27:17;5.35;;;4.85;;
10643;SDS011;5370;50.132;8.626;2022-08-25T11:29:51;4.90;;;4.50;;
10643;SDS011;5370;50.132;8.626;2022-08-25T11:32:27;7.43;;;4.57;;
10643;SDS011;5370;50.132;8.626;2022-08-25T11:34:58;5.38;;;4.88;;
10643;SDS011;5370;50.132;8.626;2022-08-25T11:37:26;5.50;;;5.00;;
10643;SDS011;5370;50.132;8.626;2022-08-25T11:57:15;6.82;;;5.20;;
10643;SDS011;5370;50.132;8.626;2022-08-25T12:02:38;4.25;;;3.95;;
10643;SDS011;5370;50.132;8.626;2022-08-25T12:05:05;4.65;;;4.25;;
10643;SDS011;5370;50.132;8.626;2022-08-25T12:13:25;11.77;;;4.82;;
10643;SDS011;5370;50.132;8.626;2022-08-25T12:16:03;4.65;;;4.25;;
10643;SDS011;5370;50.132;8.626;2022-08-25T12:29:01;4.53;;;4.03;;
10643;SDS011;5370;50.132;8.626;2022-08-25T12:36:58;4.65;;;4.28;;
10643;SDS011;5370;50.132;8.626;2022-08-25T12:39:30;6.40;;;4.45;;
10643;SDS011;5370;50.132;8.626;2022-08-25T12:42:03;8.00;;;4.18;;
10643;SDS011;5370;50.132;8.626;2022-08-25T12:50:23;4.63;;;4.20;;
10643;SDS011;5370;50.132;8.626;2022-08-25T12:52:48;4.30;;;3.80;;
10643;SDS011;5370;50.132;8.626;2022-08-25T12:55:14;4.38;;;3.97;;
10643;SDS011;5370;50.132;8.626;2022-08-25T12:57:50;5.45;;;4.07;;
10643;SDS011;5370;50.132;8.626;2022-08-25T13:03:13;5.07;;;4.53;;
10643;SDS011;5370;50.132;8.626;2022-08-25T13:11:39;4.35;;;4.05;;
10643;SDS011;5370;50.132;8.626;2022-08-25T13:14:18;4.65;;;4.13;;
10643;SDS011;5370;50.132;8.626;2022-08-25T13:16:51;5.53;;;4.80;;
10643;SDS011;5370;50.132;8.626;2022-08-25T13:19:22;5.55;;;4.57;;
10643;SDS011;5370;50.132;8.626;2022-08-25T13:21:49;6.30;;;4.45;;
10643;SDS011;5370;50.132;8.626;2022-08-25T13:24:26;5.55;;;4.32;;
10643;SDS011;5370;50.132;8.626;2022-08-25T13:27:03;4.55;;;3.92;;
10643;SDS011;5370;50.132;8.626;2022-08-25T13:29:34;7.05;;;4.30;;
10643;SDS011;5370;50.132;8.626;2022-08-25T13:32:12;8.15;;;3.65;;
10643;SDS011;5370;50.132;8.626;2022-08-25T13:34:40;4.32;;;3.47;;
10643;SDS011;5370;50.132;8.626;2022-08-25T13:37:11;6.32;;;3.95;;
10643;SDS011;5370;50.132;8.626;2022-08-25T13:40:06;6.88;;;3.85;;
10643;SDS011;5370;50.132;8.626;2022-08-25T13:42:32;4.82;;;4.13;;
10643;SDS011;5370;50.132;8.626;2022-08-25T13:44:57;4.32;;;3.92;;
10643;SDS011;5370;50.132;8.626;2022-08-25T13:47:34;5.05;;;3.55;;
10643;SDS011;5370;50.132;8.626;2022-08-25T13:50:18;3.88;;;3.58;;
10643;SDS011;5370;50.132;8.626;2022-08-25T13:52:57;3.63;;;3.38;;
10643;SDS011;5370;50.132;8.626;2022-08-25T13:55:35;6.43;;;3.92;;
10643;SDS011;5370;50.132;8.626;2022-08-25T13:58:12;4.43;;;3.47;;
10643;SDS011;5370;50.132;8.626;2022-08-25T14:00:50;4.75;;;4.20;;
10643;SDS011;5370;50.132;8.626;2022-08-25T14:06:43;4.43;;;3.80;;
10643;SDS011;5370;50.132;8.626;2022-08-25T14:09:13;4.30;;;3.70;;
10643;SDS011;5370;50.132;8.626;2022-08-25T14:11:46;7.45;;;3.88;;
10643;SDS011;5370;50.132;8.626;2022-08-25T14:19:19;9.90;;;3.15;;
10643;SDS011;5370;50.132;8.626;2022-08-25T14:21:47;4.63;;;3.80;;
10643;SDS011;5370;50.132;8.626;2022-08-25T14:24:15;4.85;;;3.17;;
10643;SDS011;5370;50.132;8.626;2022-08-25T14:26:42;3.75;;;3.10;;
10643;SDS011;5370;50.132;8.626;2022-08-25T14:29:09;4.10;;;3.70;;
10643;SDS011;5370;50.132;8.626;2022-08-25T14:31:35;6.30;;;3.85;;
10643;SDS011;5370;50.132;8.626;2022-08-25T14:34:08;4.78;;;3.78;;
10643;SDS011;5370;50.132;8.626;2022-08-25T14:36:41;4.15;;;3.75;;
10643;SDS011;5370;50.132;8.626;2022-08-25T14:39:07;3.92;;;3.50;;
10643;SDS011;5370;50.132;8.626;2022-08-25T14:41:34;7.10;;;4.03;;
10643;SDS011;5370;50.132;8.626;2022-08-25T14:44:02;3.97;;;3.60;;
10643;SDS011;5370;50.132;8.626;2022-08-25T14:46:33;4.88;;;3.97;;
10643;SDS011;5370;50.132;8.626;2022-08-25T14:49:03;8.38;;;3.80;;
10643;SDS011;5370;50.132;8.626;2022-08-25T14:51:30;3.63;;;3.33;;
10643;SDS011;5370;50.132;8.626;2022-08-25T14:54:02;4.40;;;3.65;;
10643;SDS011;5370;50.132;8.626;2022-08-25T14:56:30;7.53;;;4.10;;
10643;SDS011;5370;50.132;8.626;2022-08-25T14:58:56;3.97;;;3.67;;
10643;SDS011;5370;50.132;8.626;2022-08-25T15:01:22;5.05;;;3.30;;
10643;SDS011;5370;50.132;8.626;2022-08-25T15:03:49;7.07;;;3.83;;
10643;SDS011;5370;50.132;8.626;2022-08-25T15:06:18;10.65;;;4.07;;
10643;SDS011;5370;50.132;8.626;2022-08-25T15:08:44;8.55;;;4.22;;
10643;SDS011;5370;50.132;8.626;2022-08-25T15:11:28;5.07;;;3.50;;
10643;SDS011;5370;50.132;8.626;2022-08-25T15:13:54;4.05;;;3.75;;
10643;SDS011;5370;50.132;8.626;2022-08-25T15:16:22;5.97;;;4.53;;
10643;SDS011;5370;50.132;8.626;2022-08-25T15:18:51;5.53;;;4.35;;
10643;SDS011;5370;50.132;8.626;2022-08-25T15:21:17;6.68;;;4.38;;
10643;SDS011;5370;50.132;8.626;2022-08-25T15:23:42;4.00;;;3.60;;
10643;SDS011;5370;50.132;8.626;2022-08-25T15:26:09;6.07;;;3.90;;
10643;SDS011;5370;50.132;8.626;2022-08-25T15:28:40;7.78;;;3.80;;
10643;SDS011;5370;50.132;8.626;2022-08-25T15:31:10;4.85;;;3.92;;
10643;SDS011;5370;50.132;8.626;2022-08-25T15:33:39;5.25;;;4.13;;
10643;SDS011;5370;50.132;8.626;2022-08-25T15:36:06;4.57;;;4.15;;
10643;SDS011;5370;50.132;8.626;2022-08-25T15:38:36;4.28;;;3.88;;
10643;SDS011;5370;50.132;8.626;2022-08-25T15:41:03;4.57;;;4.00;;
10643;SDS011;5370;50.132;8.626;2022-08-25T15:43:29;4.43;;;3.60;;
10643;SDS011;5370;50.132;8.626;2022-08-25T15:45:54;6.32;;;4.15;;
10643;SDS011;5370;50.132;8.626;2022-08-25T15:48:20;3.88;;;3.35;;
10643;SDS011;5370;50.132;8.626;2022-08-25T15:50:46;4.45;;;4.05;;
10643;SDS011;5370;50.132;8.626;2022-08-25T15:53:12;8.75;;;3.83;;
10643;SDS011;5370;50.132;8.626;2022-08-25T15:55:38;5.70;;;3.95;;
10643;SDS011;5370;50.132;8.626;2022-08-25T15:58:04;4.65;;;4.10;;
10643;SDS011;5370;50.132;8.626;2022-08-25T16:00:30;4.85;;;3.83;;
10643;SDS011;5370;50.132;8.626;2022-08-25T16:02:55;4.38;;;3.95;;
10643;SDS011;5370;50.132;8.626;2022-08-25T16:05:21;4.65;;;3.83;;
10643;SDS011;5370;50.132;8.626;2022-08-25T16:07:47;6.57;;;3.95;;
10643;SDS011;5370;50.132;8.626;2022-08-25T16:10:12;7.68;;;4.35;;
10643;SDS011;5370;50.132;8.626;2022-08-25T16:12:39;4.78;;;4.32;;
10643;SDS011;5370;50.132;8.626;2022-08-25T16:15:05;4.22;;;3.83;;
10643;SDS011;5370;50.132;8.626;2022-08-25T16:17:31;4.20;;;3.80;;
10643;SDS011;5370;50.132;8.626;2022-08-25T16:19:56;5.55;;;3.83;;
10643;SDS011;5370;50.132;8.626;2022-08-25T16:22:22;5.10;;;4.05;;
10643;SDS011;5370;50.132;8.626;2022-08-25T16:24:48;4.68;;;4.03;;
10643;SDS011;5370;50.132;8.626;2022-08-25T16:27:13;6.93;;;4.10;;
10643;SDS011;5370;50.132;8.626;2022-08-25T16:29:40;4.00;;;3.60;;
10643;SDS011;5370;50.132;8.626;2022-08-25T16:32:08;4.43;;;3.08;;
10643;SDS011;5370;50.132;8.626;2022-08-25T16:34:35;4.88;;;4.30;;
10643;SDS011;5370;50.132;8.626;2022-08-25T16:37:01;7.38;;;3.60;;
10643;SDS011;5370;50.132;8.626;2022-08-25T16:39:27;4.60;;;3.92;;
10643;SDS011;5370;50.132;8.626;2022-08-25T16:41:53;6.32;;;3.72;;
10643;SDS011;5370;50.132;8.626;2022-08-25T16:44:19;4.15;;;3.40;;
10643;SDS011;5370;50.132;8.626;2022-08-25T16:46:46;7.32;;;4.20;;
10643;SDS011;5370;50.132;8.626;2022-08-25T16:49:12;5.93;;;3.92;;
10643;SDS011;5370;50.132;8.626;2022-08-25T16:51:39;4.57;;;4.00;;
10643;SDS011;5370;50.132;8.626;2022-08-25T16:54:05;7.47;;;3.85;;
10643;SDS011;5370;50.132;8.626;2022-08-25T16:56:50;5.47;;;3.70;;
10643;SDS011;5370;50.132;8.626;2022-08-25T16:59:16;4.95;;;3.47;;
10643;SDS011;5370;50.132;8.626;2022-08-25T17:01:42;5.43;;;3.97;;
10643;SDS011;5370;50.132;8.626;2022-08-25T17:04:08;5.07;;;4.03;;
10643;SDS011;5370;50.132;8.626;2022-08-25T17:06:35;6.50;;;3.55;;
10643;SDS011;5370;50.132;8.626;2022-08-25T17:09:03;6.88;;;3.85;;
10643;SDS011;5370;50.132;8.626;2022-08-25T17:11:31;6.50;;;3.10;;